Patricia Moran — WBQ6818 — position and weather

sailwx.info

Track history (hours):
 
Tides and Currents Weather Stations Pressure Air Temp Water Temp Dewpoint Dewpoint Depression Visibility Wind Speed Wind Dir Waves Ship Positions

Patricia Moran

Owner: MORAN TOWING CORPORATION, Norfolk, VA. More information available from US FCC via Universal Licensing System and Coast Guard Vessel Documentation Center.

Last reported at 2017-Oct-13 16:10 UTC. Time now 2017-Oct-17 22:28 UTC.
Position N 36°57' W 076°20'.

Length 30 m; draft 3.9 m.

Type: Tug. MMSI: 367323010.

Date/timePositionNaut miles runAvg speedWind from/ knotsBaromVisibWave heightAir tempDewpointWater temp
2017-Oct-13 16:10N 36°57' W 076°20'1 1.1
2017-Oct-13 15:35N 36°56' W 076°20'0 1.3
2017-Oct-13 15:27N 36°56' W 076°20'0 0.2
2017-Oct-13 14:56N 36°56' W 076°20'0 0.2
2017-Oct-13 12:26N 36°57' W 076°20'3 7.1
2017-Oct-13 12:01N 36°54' W 076°20'3 0.1
2017-Oct-11 19:36N 36°56' W 076°20'210.9
2017-Oct-11 19:26N 36°55' W 076°20'1 3.0
2017-Oct-11 18:59N 36°53' W 076°20'  
2017-Oct-06 19:43N 36°57' W 076°20'8 0.2
2017-Oct-05 12:32N 36°55' W 076°11'0 0.1
2017-Oct-05 12:20N 36°55' W 076°11'0 0.1
2017-Oct-05 12:00N 36°55' W 076°11'5 2.9
2017-Oct-05 10:13N 36°59' W 076°06'1 6.5
2017-Oct-05 10:00N 36°58' W 076°05'6 5.7
2017-Oct-05 09:01N 36°55' W 076°11'0 0.0
2017-Oct-05 09:00N 36°55' W 076°11'1 2.0
2017-Oct-05 08:29N 36°56' W 076°11'  
Track history (hours):
 
Tides and Currents Weather Stations Pressure Air Temp Water Temp Dewpoint Dewpoint Depression Visibility Wind Speed Wind Dir Waves Ship Positions

Patricia Moran

Owner: MORAN TOWING CORPORATION, Norfolk, VA. More information available from US FCC via Universal Licensing System and Coast Guard Vessel Documentation Center.

Last reported at 2017-Oct-13 16:10 UTC. Time now 2017-Oct-17 22:28 UTC.
Position N 36°57' W 076°20'.

Length 30 m; draft 3.9 m.

Type: Tug. MMSI: 367323010.

Date/timePositionNaut miles runAvg speedWind from/ knotsBaromVisibWave heightAir tempDewpointWater temp
2017-Oct-13 16:10N 36°57' W 076°20'1 1.1
2017-Oct-13 15:35N 36°56' W 076°20'0 1.3
2017-Oct-13 15:27N 36°56' W 076°20'0 0.2
2017-Oct-13 14:56N 36°56' W 076°20'0 0.2
2017-Oct-13 12:26N 36°57' W 076°20'3 7.1
2017-Oct-13 12:01N 36°54' W 076°20'3 0.1
2017-Oct-11 19:36N 36°56' W 076°20'210.9
2017-Oct-11 19:26N 36°55' W 076°20'1 3.0
2017-Oct-11 18:59N 36°53' W 076°20'  
2017-Oct-06 19:43N 36°57' W 076°20'8 0.2
2017-Oct-05 12:32N 36°55' W 076°11'0 0.1
2017-Oct-05 12:20N 36°55' W 076°11'0 0.1
2017-Oct-05 12:00N 36°55' W 076°11'5 2.9
2017-Oct-05 10:13N 36°59' W 076°06'1 6.5
2017-Oct-05 10:00N 36°58' W 076°05'6 5.7
2017-Oct-05 09:01N 36°55' W 076°11'0 0.0
2017-Oct-05 09:00N 36°55' W 076°11'1 2.0
2017-Oct-05 08:29N 36°56' W 076°11'  

Dump ship's entire track history